Search for airport 
image banner adimage banner adimage banner ad
image banner ad

7PA4 - Orson Field

Located in Orson, United States

ICAO - 7PA4, IATA -

Data provided by Airmate  

General information

Coordinates: N41°50'32" W75°26'11"
Elevation is 2100 feet MSL.
Magnetic variation is -12° East
View others Airports in Pennsylvania

Operational data

Special qualification required
Current time UTC:
Current local time:
Weather at : KMSV - Sullivan County Intl ( 55 km )
METAR: KMSV 152256Z AUTO 31012KT 10SM OVC017 17/13 A2982 RMK AO2 SLP095 T01670133
View NOTAMs / SUP AIP / TFR affecting this airport [VIEW]
Communications frequencies: [VIEW]

Runways:

RWY identifierQFULength (ft)Width (ft)SurfaceLDA (ft)
031700100GRASS
211700100GRASS

Airport contact information

Address: Orson United States

Satellite view of 7PA4